SHT16H EGLL-EGPE
Flight info
| Callsign | SHT16H |
|---|---|
| Flight time | 1h 7m |
| Altitude | 36000 |
| Route | ULTIB1J ULTIB T420 TNT UN57 POL UN601 RIBEL DCT SHAPP DCT INREV DCT TLA DCT FOYLE/N0402F250 N560 NESDI DCT GUSSI DCT |
| Aircraft | A320/M-SDE3FGHIJ1KRWXY/SB1 |
Departure
| Time | 2026-05-07 18:46 |
|---|---|
| Airport | London Heathrow Airport (EGLL) |
Arrival
| Time | 2026-05-07 19:53 |
|---|---|
| Airport | Inverness Airport (EGPE) |
| Time | Latitude | Longitude | Altitude | Speed | Heading |
|---|---|---|---|---|---|
| 2026-05-07 18:13 | 51.47087 | -0.48584 | 90 ft | 0 kts | 270° |
| 2026-05-07 18:35 | 51.47087 | -0.48572 | 86 ft | 4 kts | 270° |
| 2026-05-07 18:35 | 51.47087 | -0.48530 | 89 ft | 2 kts | 270° |
| 2026-05-07 18:35 | 51.47089 | -0.48496 | 86 ft | 4 kts | 243° |
| 2026-05-07 18:35 | 51.47105 | -0.48472 | 86 ft | 4 kts | 183° |
| 2026-05-07 18:36 | 51.47127 | -0.48472 | 86 ft | 1 kts | 180° |
| 2026-05-07 18:38 | 51.47123 | -0.48472 | 86 ft | 2 kts | 180° |
| 2026-05-07 18:39 | 51.47122 | -0.48472 | 86 ft | 0 kts | 180° |
| 2026-05-07 18:39 | 51.47098 | -0.48471 | 88 ft | 7 kts | 179° |
| 2026-05-07 18:39 | 51.47069 | -0.48472 | 86 ft | 4 kts | 181° |
| 2026-05-07 18:40 | 51.47046 | -0.48472 | 89 ft | 2 kts | 181° |
| 2026-05-07 18:40 | 51.47030 | -0.48473 | 89 ft | 3 kts | 181° |
| 2026-05-07 18:40 | 51.46993 | -0.48472 | 86 ft | 8 kts | 179° |
| 2026-05-07 18:40 | 51.46930 | -0.48470 | 86 ft | 11 kts | 179° |
| 2026-05-07 18:41 | 51.46853 | -0.48469 | 88 ft | 10 kts | 180° |
| 2026-05-07 18:41 | 51.46824 | -0.48469 | 86 ft | 0 kts | 180° |
| 2026-05-07 18:43 | 51.46823 | -0.48469 | 86 ft | 1 kts | 180° |
| 2026-05-07 18:44 | 51.46799 | -0.48469 | 89 ft | 6 kts | 180° |
| 2026-05-07 18:44 | 51.46739 | -0.48469 | 86 ft | 11 kts | 180° |
| 2026-05-07 18:44 | 51.46653 | -0.48469 | 86 ft | 14 kts | 180° |
| 2026-05-07 18:44 | 51.46586 | -0.48468 | 86 ft | 15 kts | 179° |
| 2026-05-07 18:45 | 51.46488 | -0.48446 | 87 ft | 14 kts | 131° |
| 2026-05-07 18:45 | 51.46479 | -0.48274 | 88 ft | 26 kts | 90° |
| 2026-05-07 18:45 | 51.46480 | -0.47588 | 85 ft | 94 kts | 90° |
| 2026-05-07 18:45 | 51.46485 | -0.46249 | 89 ft | 144 kts | 90° |
| 2026-05-07 18:46 | 51.46503 | -0.44518 | 431 ft | 155 kts | 91° |
| 2026-05-07 18:46 | 51.46540 | -0.42813 | 1109 ft | 152 kts | 90° |
| 2026-05-07 18:46 | 51.46592 | -0.41132 | 1735 ft | 149 kts | 88° |
| 2026-05-07 18:46 | 51.46952 | -0.39567 | 2114 ft | 161 kts | 50° |
| 2026-05-07 18:47 | 51.47789 | -0.38187 | 2333 ft | 184 kts | 48° |
| 2026-05-07 18:47 | 51.48702 | -0.36573 | 2583 ft | 206 kts | 50° |
| 2026-05-07 18:47 | 51.49696 | -0.34746 | 2877 ft | 229 kts | 50° |
| 2026-05-07 18:47 | 51.50790 | -0.32695 | 3294 ft | 252 kts | 50° |
| 2026-05-07 18:48 | 51.51931 | -0.30499 | 4108 ft | 258 kts | 54° |
| 2026-05-07 18:48 | 51.52739 | -0.27918 | 4999 ft | 262 kts | 71° |
| 2026-05-07 18:48 | 51.53464 | -0.25223 | 5844 ft | 267 kts | 56° |
| 2026-05-07 18:48 | 51.54811 | -0.23174 | 6635 ft | 272 kts | 29° |
| 2026-05-07 18:49 | 51.56624 | -0.22324 | 7390 ft | 277 kts | 360° |
| 2026-05-07 18:49 | 51.58522 | -0.22846 | 8165 ft | 281 kts | 345° |
| 2026-05-07 18:49 | 51.60450 | -0.23540 | 8997 ft | 286 kts | 346° |
| 2026-05-07 18:49 | 51.62350 | -0.24532 | 9812 ft | 290 kts | 333° |
| 2026-05-07 18:50 | 51.64124 | -0.26095 | 10407 ft | 296 kts | 328° |
| 2026-05-07 18:50 | 51.65996 | -0.27849 | 10612 ft | 319 kts | 327° |
| 2026-05-07 18:50 | 51.67969 | -0.29744 | 10867 ft | 338 kts | 327° |
| 2026-05-07 18:50 | 51.70009 | -0.31723 | 11452 ft | 345 kts | 327° |
| 2026-05-07 18:51 | 51.72080 | -0.33735 | 12112 ft | 349 kts | 327° |
| 2026-05-07 18:51 | 51.74173 | -0.35764 | 12777 ft | 354 kts | 327° |
| 2026-05-07 18:51 | 51.76297 | -0.37819 | 13449 ft | 358 kts | 327° |
| 2026-05-07 18:51 | 51.78448 | -0.39903 | 14068 ft | 362 kts | 327° |
| 2026-05-07 18:52 | 51.80617 | -0.42006 | 14672 ft | 365 kts | 327° |
| 2026-05-07 18:52 | 51.82800 | -0.44122 | 15267 ft | 368 kts | 327° |
| 2026-05-07 18:52 | 51.85012 | -0.46268 | 15856 ft | 371 kts | 327° |
| 2026-05-07 18:52 | 51.87205 | -0.48391 | 16452 ft | 374 kts | 327° |
| 2026-05-07 18:53 | 51.89445 | -0.50564 | 17068 ft | 376 kts | 327° |
| 2026-05-07 18:53 | 51.91728 | -0.52783 | 17701 ft | 379 kts | 327° |
| 2026-05-07 18:53 | 51.93993 | -0.54988 | 18338 ft | 382 kts | 327° |
| 2026-05-07 18:53 | 51.96279 | -0.57216 | 18903 ft | 384 kts | 327° |
| 2026-05-07 18:54 | 51.98577 | -0.59460 | 19470 ft | 387 kts | 327° |
| 2026-05-07 18:54 | 52.00860 | -0.61694 | 20039 ft | 390 kts | 327° |
| 2026-05-07 18:54 | 52.03190 | -0.63982 | 20612 ft | 393 kts | 326° |
| 2026-05-07 18:54 | 52.05533 | -0.66286 | 21169 ft | 395 kts | 326° |
| 2026-05-07 18:55 | 52.07887 | -0.68603 | 21723 ft | 398 kts | 326° |
| 2026-05-07 18:55 | 52.10266 | -0.70945 | 22254 ft | 400 kts | 326° |
| 2026-05-07 18:55 | 52.12657 | -0.73298 | 22771 ft | 403 kts | 326° |
| 2026-05-07 18:55 | 52.15062 | -0.75670 | 23278 ft | 406 kts | 326° |
| 2026-05-07 18:56 | 52.17481 | -0.78061 | 23744 ft | 408 kts | 326° |
| 2026-05-07 18:56 | 52.19919 | -0.80475 | 24141 ft | 411 kts | 326° |
| 2026-05-07 18:56 | 52.22366 | -0.82897 | 24562 ft | 413 kts | 326° |
| 2026-05-07 18:56 | 52.24825 | -0.85328 | 24969 ft | 415 kts | 326° |
| 2026-05-07 18:57 | 52.27295 | -0.87770 | 25373 ft | 416 kts | 326° |
| 2026-05-07 18:57 | 52.29778 | -0.90232 | 25767 ft | 419 kts | 326° |
| 2026-05-07 18:57 | 52.32272 | -0.92716 | 26137 ft | 421 kts | 326° |
| 2026-05-07 18:57 | 52.34779 | -0.95217 | 26500 ft | 423 kts | 326° |
| 2026-05-07 18:58 | 52.37302 | -0.97731 | 26871 ft | 425 kts | 326° |
| 2026-05-07 18:58 | 52.39835 | -1.00259 | 27255 ft | 427 kts | 326° |
| 2026-05-07 18:58 | 52.42374 | -1.02800 | 27634 ft | 429 kts | 326° |
| 2026-05-07 18:58 | 52.44927 | -1.05359 | 27987 ft | 431 kts | 326° |
| 2026-05-07 18:59 | 52.47489 | -1.07933 | 28360 ft | 433 kts | 326° |
| 2026-05-07 18:59 | 52.50066 | -1.10521 | 28695 ft | 435 kts | 326° |
| 2026-05-07 18:59 | 52.52660 | -1.13132 | 29047 ft | 437 kts | 326° |
| 2026-05-07 18:59 | 52.55260 | -1.15754 | 29331 ft | 441 kts | 326° |
| 2026-05-07 19:00 | 52.57880 | -1.18399 | 29631 ft | 443 kts | 326° |
| 2026-05-07 19:00 | 52.60501 | -1.21046 | 30076 ft | 443 kts | 326° |
| 2026-05-07 19:00 | 52.63125 | -1.23695 | 30482 ft | 442 kts | 326° |
| 2026-05-07 19:00 | 52.65743 | -1.26342 | 30882 ft | 441 kts | 326° |
| 2026-05-07 19:01 | 52.68354 | -1.28993 | 31285 ft | 440 kts | 326° |
| 2026-05-07 19:01 | 52.70962 | -1.31641 | 31689 ft | 440 kts | 326° |
| 2026-05-07 19:01 | 52.73562 | -1.34281 | 32156 ft | 440 kts | 326° |
| 2026-05-07 19:01 | 52.76160 | -1.36924 | 32573 ft | 439 kts | 326° |
| 2026-05-07 19:02 | 52.78769 | -1.39582 | 32880 ft | 441 kts | 326° |
| 2026-05-07 19:02 | 52.81375 | -1.42245 | 33212 ft | 443 kts | 326° |
| 2026-05-07 19:02 | 52.83999 | -1.44931 | 33603 ft | 442 kts | 326° |
| 2026-05-07 19:02 | 52.86615 | -1.47615 | 34002 ft | 442 kts | 326° |
| 2026-05-07 19:03 | 52.89229 | -1.50302 | 34343 ft | 442 kts | 326° |
| 2026-05-07 19:03 | 52.91836 | -1.52983 | 34669 ft | 441 kts | 326° |
| 2026-05-07 19:03 | 52.94438 | -1.55661 | 34999 ft | 440 kts | 326° |
| 2026-05-07 19:03 | 52.97042 | -1.58344 | 35296 ft | 440 kts | 326° |
| 2026-05-07 19:04 | 52.99646 | -1.61033 | 35581 ft | 440 kts | 326° |
| 2026-05-07 19:04 | 53.02249 | -1.63726 | 35828 ft | 442 kts | 326° |
| 2026-05-07 19:04 | 53.04886 | -1.66363 | 35997 ft | 445 kts | 330° |
| 2026-05-07 19:05 | 53.10695 | -1.70284 | 36032 ft | 455 kts | 338° |
| 2026-05-07 19:05 | 53.16637 | -1.73957 | 36036 ft | 455 kts | 338° |
| 2026-05-07 19:06 | 53.22579 | -1.77639 | 36032 ft | 456 kts | 337° |
| 2026-05-07 19:06 | 53.31515 | -1.83223 | 36034 ft | 458 kts | 338° |
| 2026-05-07 19:07 | 53.37490 | -1.86975 | 36030 ft | 459 kts | 338° |
| 2026-05-07 19:07 | 53.43469 | -1.90726 | 36028 ft | 459 kts | 338° |
| 2026-05-07 19:08 | 53.49454 | -1.94488 | 36037 ft | 459 kts | 337° |
| 2026-05-07 19:08 | 53.55468 | -1.98288 | 36027 ft | 467 kts | 337° |
| 2026-05-07 19:09 | 53.61597 | -2.02179 | 36032 ft | 474 kts | 337° |
| 2026-05-07 19:09 | 53.67789 | -2.06121 | 36030 ft | 476 kts | 337° |
| 2026-05-07 19:10 | 53.73982 | -2.10067 | 36022 ft | 476 kts | 337° |
| 2026-05-07 19:10 | 53.80159 | -2.14146 | 36024 ft | 477 kts | 336° |
| 2026-05-07 19:11 | 53.86315 | -2.18406 | 36032 ft | 477 kts | 335° |
| 2026-05-07 19:11 | 53.92464 | -2.22678 | 36036 ft | 478 kts | 336° |
| 2026-05-07 19:12 | 53.98588 | -2.26891 | 36051 ft | 478 kts | 336° |
| 2026-05-07 19:12 | 54.04764 | -2.31137 | 36035 ft | 479 kts | 336° |
| 2026-05-07 19:13 | 54.10943 | -2.35404 | 36028 ft | 480 kts | 336° |
| 2026-05-07 19:13 | 54.17141 | -2.39706 | 36031 ft | 480 kts | 336° |
| 2026-05-07 19:14 | 54.23330 | -2.44009 | 36039 ft | 481 kts | 336° |
| 2026-05-07 19:14 | 54.29526 | -2.48339 | 36023 ft | 482 kts | 336° |
| 2026-05-07 19:15 | 54.35740 | -2.52685 | 36023 ft | 483 kts | 336° |
| 2026-05-07 19:15 | 54.41967 | -2.57060 | 36021 ft | 483 kts | 336° |
| 2026-05-07 19:16 | 54.48191 | -2.61452 | 36029 ft | 484 kts | 336° |
| 2026-05-07 19:16 | 54.54433 | -2.65867 | 36017 ft | 485 kts | 336° |
| 2026-05-07 19:17 | 54.60676 | -2.70290 | 36032 ft | 485 kts | 335° |
| 2026-05-07 19:17 | 54.66923 | -2.74735 | 36027 ft | 485 kts | 335° |
| 2026-05-07 19:18 | 54.73158 | -2.79185 | 36029 ft | 485 kts | 335° |
| 2026-05-07 19:18 | 54.79390 | -2.83648 | 36008 ft | 486 kts | 335° |
| 2026-05-07 19:19 | 54.85647 | -2.88159 | 36010 ft | 486 kts | 335° |
| 2026-05-07 19:19 | 54.91893 | -2.92668 | 36006 ft | 486 kts | 335° |
| 2026-05-07 19:20 | 54.98147 | -2.97197 | 36012 ft | 487 kts | 335° |
| 2026-05-07 19:20 | 55.04402 | -3.01749 | 35996 ft | 488 kts | 335° |
| 2026-05-07 19:21 | 55.10664 | -3.06309 | 35992 ft | 488 kts | 335° |
| 2026-05-07 19:21 | 55.16938 | -3.10898 | 35988 ft | 489 kts | 335° |
| 2026-05-07 19:22 | 55.23207 | -3.15501 | 35998 ft | 489 kts | 335° |
| 2026-05-07 19:22 | 55.29485 | -3.20116 | 35988 ft | 490 kts | 335° |
| 2026-05-07 19:23 | 55.35775 | -3.24755 | 35987 ft | 490 kts | 334° |
| 2026-05-07 19:23 | 55.42060 | -3.29427 | 35989 ft | 491 kts | 334° |
| 2026-05-07 19:24 | 55.48312 | -3.34259 | 36017 ft | 489 kts | 328° |
| 2026-05-07 19:24 | 55.53732 | -3.41247 | 36000 ft | 481 kts | 314° |
| 2026-05-07 19:25 | 55.58691 | -3.49039 | 35994 ft | 480 kts | 314° |
| 2026-05-07 19:25 | 55.63681 | -3.56896 | 35978 ft | 480 kts | 314° |
| 2026-05-07 19:26 | 55.68672 | -3.64765 | 35967 ft | 480 kts | 314° |
| 2026-05-07 19:26 | 55.73652 | -3.72661 | 35977 ft | 480 kts | 314° |
| 2026-05-07 19:27 | 55.78620 | -3.80582 | 35972 ft | 480 kts | 314° |
| 2026-05-07 19:27 | 55.83588 | -3.88521 | 35963 ft | 480 kts | 314° |
| 2026-05-07 19:28 | 55.88550 | -3.96478 | 35974 ft | 480 kts | 314° |
| 2026-05-07 19:28 | 55.92696 | -4.03162 | 35971 ft | 479 kts | 314° |
| 2026-05-07 19:29 | 55.97604 | -4.11077 | 35962 ft | 479 kts | 314° |
| 2026-05-07 19:29 | 56.02540 | -4.19053 | 35959 ft | 478 kts | 314° |
| 2026-05-07 19:30 | 56.07485 | -4.27109 | 35963 ft | 478 kts | 313° |
| 2026-05-07 19:30 | 56.12898 | -4.33925 | 35951 ft | 487 kts | 333° |
| 2026-05-07 19:31 | 56.16113 | -4.35913 | 35473 ft | 491 kts | 345° |
| 2026-05-07 19:31 | 56.19552 | -4.36702 | 34689 ft | 494 kts | 358° |
| 2026-05-07 19:31 | 56.22928 | -4.36304 | 33449 ft | 494 kts | 7° |
| 2026-05-07 19:31 | 56.26360 | -4.35480 | 31761 ft | 501 kts | 7° |
| 2026-05-07 19:32 | 56.29787 | -4.34634 | 31290 ft | 491 kts | 7° |
| 2026-05-07 19:32 | 56.33148 | -4.33802 | 30894 ft | 484 kts | 7° |
| 2026-05-07 19:32 | 56.36463 | -4.32995 | 30421 ft | 478 kts | 6° |
| 2026-05-07 19:32 | 56.39727 | -4.32214 | 29703 ft | 470 kts | 6° |
| 2026-05-07 19:33 | 56.42938 | -4.31449 | 28684 ft | 463 kts | 6° |
| 2026-05-07 19:33 | 56.46112 | -4.30694 | 27704 ft | 455 kts | 6° |
| 2026-05-07 19:33 | 56.49224 | -4.29955 | 26788 ft | 448 kts | 6° |
| 2026-05-07 19:33 | 56.52296 | -4.29221 | 25922 ft | 441 kts | 6° |
| 2026-05-07 19:34 | 56.55358 | -4.28489 | 25042 ft | 436 kts | 5° |
| 2026-05-07 19:34 | 56.58302 | -4.27786 | 24258 ft | 430 kts | 5° |
| 2026-05-07 19:34 | 56.61289 | -4.27072 | 23509 ft | 424 kts | 5° |
| 2026-05-07 19:34 | 56.64158 | -4.26384 | 22676 ft | 418 kts | 5° |
| 2026-05-07 19:35 | 56.67022 | -4.25690 | 21805 ft | 413 kts | 5° |
| 2026-05-07 19:35 | 56.69850 | -4.24999 | 20959 ft | 407 kts | 5° |
| 2026-05-07 19:35 | 56.72637 | -4.24320 | 20131 ft | 402 kts | 5° |
| 2026-05-07 19:35 | 56.75395 | -4.23655 | 19313 ft | 397 kts | 5° |
| 2026-05-07 19:36 | 56.78115 | -4.22999 | 18521 ft | 392 kts | 5° |
| 2026-05-07 19:36 | 56.80821 | -4.22348 | 17870 ft | 392 kts | 5° |
| 2026-05-07 19:36 | 56.83512 | -4.21699 | 17392 ft | 388 kts | 5° |
| 2026-05-07 19:36 | 56.86177 | -4.21053 | 16922 ft | 385 kts | 5° |
| 2026-05-07 19:37 | 56.88822 | -4.20410 | 16435 ft | 382 kts | 5° |
| 2026-05-07 19:37 | 56.91446 | -4.19769 | 15962 ft | 379 kts | 4° |
| 2026-05-07 19:37 | 56.94050 | -4.19130 | 15489 ft | 376 kts | 4° |
| 2026-05-07 19:37 | 56.96637 | -4.18497 | 15032 ft | 373 kts | 4° |
| 2026-05-07 19:38 | 56.99199 | -4.17870 | 14579 ft | 371 kts | 4° |
| 2026-05-07 19:38 | 57.01748 | -4.17244 | 14146 ft | 368 kts | 4° |
| 2026-05-07 19:38 | 57.04272 | -4.16622 | 13703 ft | 365 kts | 4° |
| 2026-05-07 19:38 | 57.06783 | -4.16005 | 13155 ft | 363 kts | 4° |
| 2026-05-07 19:39 | 57.09280 | -4.15392 | 12651 ft | 362 kts | 4° |
| 2026-05-07 19:39 | 57.11767 | -4.14782 | 12187 ft | 360 kts | 4° |
| 2026-05-07 19:39 | 57.14243 | -4.14169 | 11704 ft | 357 kts | 5° |
| 2026-05-07 19:39 | 57.16663 | -4.13240 | 11298 ft | 356 kts | 19° |
| 2026-05-07 19:40 | 57.18763 | -4.10940 | 11110 ft | 347 kts | 37° |
| 2026-05-07 19:40 | 57.20620 | -4.08210 | 10971 ft | 335 kts | 39° |
| 2026-05-07 19:40 | 57.22375 | -4.05569 | 10838 ft | 316 kts | 39° |
| 2026-05-07 19:40 | 57.24007 | -4.03107 | 10589 ft | 301 kts | 39° |
| 2026-05-07 19:41 | 57.25611 | -4.00688 | 10141 ft | 296 kts | 39° |
| 2026-05-07 19:41 | 57.27201 | -3.98295 | 9741 ft | 294 kts | 39° |
| 2026-05-07 19:41 | 57.28782 | -3.95912 | 9435 ft | 292 kts | 39° |
| 2026-05-07 19:41 | 57.30353 | -3.93550 | 9096 ft | 291 kts | 39° |
| 2026-05-07 19:42 | 57.31923 | -3.91199 | 8799 ft | 290 kts | 39° |
| 2026-05-07 19:42 | 57.33488 | -3.88848 | 8502 ft | 289 kts | 39° |
| 2026-05-07 19:42 | 57.35045 | -3.86507 | 8205 ft | 288 kts | 39° |
| 2026-05-07 19:42 | 57.36593 | -3.84175 | 7895 ft | 287 kts | 39° |
| 2026-05-07 19:43 | 57.38132 | -3.81857 | 7697 ft | 281 kts | 39° |
| 2026-05-07 19:43 | 57.39631 | -3.79605 | 7525 ft | 275 kts | 39° |
| 2026-05-07 19:43 | 57.41106 | -3.77391 | 7312 ft | 270 kts | 39° |
| 2026-05-07 19:43 | 57.42545 | -3.75230 | 7177 ft | 262 kts | 39° |
| 2026-05-07 19:44 | 57.43945 | -3.73132 | 7056 ft | 255 kts | 39° |
| 2026-05-07 19:44 | 57.45306 | -3.71097 | 6915 ft | 247 kts | 39° |
| 2026-05-07 19:44 | 57.46621 | -3.69130 | 6797 ft | 238 kts | 39° |
| 2026-05-07 19:44 | 57.47889 | -3.67235 | 6659 ft | 229 kts | 39° |
| 2026-05-07 19:45 | 57.49117 | -3.65407 | 6449 ft | 226 kts | 39° |
| 2026-05-07 19:45 | 57.50336 | -3.63593 | 6127 ft | 225 kts | 39° |
| 2026-05-07 19:45 | 57.51650 | -3.62080 | 5723 ft | 220 kts | 13° |
| 2026-05-07 19:45 | 57.53138 | -3.61702 | 5288 ft | 214 kts | 349° |
| 2026-05-07 19:46 | 57.54592 | -3.62137 | 4879 ft | 210 kts | 341° |
| 2026-05-07 19:46 | 57.56019 | -3.62730 | 4472 ft | 209 kts | 340° |
| 2026-05-07 19:46 | 57.57436 | -3.63351 | 4111 ft | 209 kts | 340° |
| 2026-05-07 19:46 | 57.58828 | -3.63965 | 3826 ft | 208 kts | 340° |
| 2026-05-07 19:47 | 57.60085 | -3.65088 | 3545 ft | 197 kts | 315° |
| 2026-05-07 19:47 | 57.61127 | -3.66695 | 3277 ft | 193 kts | 310° |
| 2026-05-07 19:47 | 57.62018 | -3.68479 | 3007 ft | 184 kts | 294° |
| 2026-05-07 19:47 | 57.62604 | -3.70545 | 2725 ft | 177 kts | 282° |
| 2026-05-07 19:48 | 57.63016 | -3.72689 | 2465 ft | 175 kts | 279° |
| 2026-05-07 19:48 | 57.63402 | -3.74850 | 2168 ft | 176 kts | 279° |
| 2026-05-07 19:48 | 57.63783 | -3.77010 | 2023 ft | 176 kts | 279° |
| 2026-05-07 19:48 | 57.64154 | -3.79179 | 2005 ft | 174 kts | 277° |
| 2026-05-07 19:49 | 57.64256 | -3.81360 | 2022 ft | 166 kts | 257° |
| 2026-05-07 19:49 | 57.63931 | -3.83382 | 2032 ft | 161 kts | 238° |
| 2026-05-07 19:49 | 57.63276 | -3.85035 | 2035 ft | 158 kts | 227° |
| 2026-05-07 19:49 | 57.62582 | -3.86557 | 2008 ft | 147 kts | 226° |
| 2026-05-07 19:50 | 57.61937 | -3.87975 | 2007 ft | 140 kts | 227° |
| 2026-05-07 19:50 | 57.61305 | -3.89357 | 1947 ft | 140 kts | 226° |
| 2026-05-07 19:50 | 57.60676 | -3.90732 | 1818 ft | 138 kts | 227° |
| 2026-05-07 19:50 | 57.60049 | -3.92102 | 1665 ft | 139 kts | 227° |
| 2026-05-07 19:51 | 57.59429 | -3.93458 | 1481 ft | 136 kts | 227° |
| 2026-05-07 19:51 | 57.58815 | -3.94801 | 1268 ft | 136 kts | 226° |
| 2026-05-07 19:51 | 57.58198 | -3.96146 | 1074 ft | 137 kts | 226° |
| 2026-05-07 19:51 | 57.57578 | -3.97496 | 892 ft | 138 kts | 227° |
| 2026-05-07 19:52 | 57.56957 | -3.98861 | 685 ft | 138 kts | 227° |
| 2026-05-07 19:52 | 57.56343 | -4.00211 | 508 ft | 135 kts | 227° |
| 2026-05-07 19:52 | 57.55737 | -4.01531 | 366 ft | 133 kts | 226° |
| 2026-05-07 19:52 | 57.55127 | -4.02843 | 178 ft | 135 kts | 229° |
| 2026-05-07 19:53 | 57.54521 | -4.04165 | 35 ft | 129 kts | 228° |
| 2026-05-07 19:53 | 57.54060 | -4.05169 | 36 ft | 62 kts | 230° |
| 2026-05-07 19:53 | 57.53915 | -4.05484 | 40 ft | 23 kts | 229° |
| 2026-05-07 19:53 | 57.53807 | -4.05717 | 41 ft | 23 kts | 230° |
| 2026-05-07 19:54 | 57.53717 | -4.05917 | 39 ft | 12 kts | 238° |
| 2026-05-07 19:54 | 57.53743 | -4.06062 | 39 ft | 14 kts | 307° |
| 2026-05-07 19:54 | 57.53819 | -4.06184 | 36 ft | 14 kts | 2° |
| 2026-05-07 19:54 | 57.53918 | -4.06164 | 36 ft | 14 kts | 6° |
| 2026-05-07 19:55 | 57.53973 | -4.06157 | 36 ft | 0 kts | 4° |
| 2026-05-07 19:55 | 57.53989 | -4.06154 | 35 ft | 5 kts | 4° |
| 2026-05-07 19:55 | 57.54023 | -4.06172 | 35 ft | 6 kts | 307° |
| 2026-05-07 19:56 | 57.54025 | -4.06243 | 36 ft | 2 kts | 274° |
| 2026-05-07 19:56 | 57.54026 | -4.06249 | 36 ft | 0 kts | 275° |